createdAt,value
2023-03-17T00:06:49.017Z,60.06
2023-03-17T00:16:49.683Z,60.05
2023-03-17T00:27:03.874Z,60.08
2023-03-17T00:37:03.781Z,60.18
2023-03-17T00:47:03.770Z,60.24
2023-03-17T00:57:03.867Z,60.38
2023-03-17T01:07:04.476Z,60.51
2023-03-17T01:17:05.577Z,60.57
2023-03-17T01:27:06.314Z,60.59
2023-03-17T01:37:07.846Z,60.64
2023-03-17T01:47:09.209Z,60.59
2023-03-17T01:57:10.642Z,60.56
2023-03-17T02:07:13.974Z,60.57
2023-03-17T02:17:16.123Z,60.59
2023-03-17T02:27:15.874Z,60.63
2023-03-17T02:37:15.918Z,60.71
2023-03-17T02:47:15.951Z,60.84
2023-03-17T02:57:16.397Z,61.01
2023-03-17T03:07:16.833Z,61.25
2023-03-17T03:17:16.917Z,61.40
2023-03-17T03:27:17.335Z,61.59
2023-03-17T03:37:17.920Z,61.78
2023-03-17T03:47:17.985Z,61.83
2023-03-17T03:57:17.965Z,61.92
2023-03-17T04:07:17.980Z,62.06
2023-03-17T04:17:17.979Z,62.19
2023-03-17T04:27:18.314Z,62.33
2023-03-17T04:37:17.984Z,62.39
2023-03-17T04:47:18.053Z,62.52
2023-03-17T04:57:18.069Z,62.55
2023-03-17T05:07:17.992Z,62.55
2023-03-17T05:17:18.079Z,62.62
2023-03-17T05:27:18.131Z,62.52
2023-03-17T05:37:18.094Z,62.47
2023-03-17T05:47:18.077Z,62.47
2023-03-17T05:57:18.094Z,62.44
2023-03-17T06:07:18.120Z,62.25
2023-03-17T06:17:18.146Z,61.77
2023-03-17T06:27:18.139Z,61.28
2023-03-17T06:37:19.022Z,60.55
2023-03-17T06:47:19.416Z,59.72
2023-03-17T06:57:19.179Z,58.97
2023-03-17T07:07:20.357Z,58.31
2023-03-17T07:17:20.171Z,57.75
2023-03-17T07:27:22.929Z,56.76
2023-03-17T07:37:23.298Z,55.57
2023-03-17T07:47:23.573Z,54.77
2023-03-17T07:57:23.364Z,53.25
2023-03-17T08:07:23.219Z,52.48
2023-03-17T08:17:25.696Z,51.35
2023-03-17T08:27:26.363Z,49.93
2023-03-17T08:37:26.273Z,49.08
2023-03-17T08:47:26.936Z,48.83
2023-03-17T08:57:27.738Z,47.97
2023-03-17T09:07:28.321Z,47.35
2023-03-17T09:17:28.404Z,44.75
2023-03-17T09:27:28.410Z,43.72
2023-03-17T09:37:28.437Z,43.81
2023-03-17T09:47:28.387Z,43.05
2023-03-17T09:57:28.423Z,41.15
2023-03-17T10:07:28.510Z,40.74
2023-03-17T10:17:28.504Z,39.74
2023-03-17T10:27:28.552Z,39.14
2023-03-17T10:37:30.412Z,39.55
2023-03-17T10:47:31.176Z,39.48
2023-03-17T10:57:31.543Z,39.89
2023-03-17T11:07:31.921Z,40.41
2023-03-17T11:17:32.570Z,40.59
2023-03-17T11:27:32.945Z,40.60
2023-03-17T11:37:33.602Z,40.95
2023-03-17T11:47:33.582Z,41.45
2023-03-17T11:57:33.697Z,41.45
2023-03-17T12:07:33.661Z,41.21
2023-03-17T12:17:33.660Z,40.40
2023-03-17T12:27:33.579Z,39.92
2023-03-17T12:37:33.601Z,39.66
2023-03-17T12:47:33.575Z,39.28
2023-03-17T12:57:33.608Z,39.37
2023-03-17T13:07:33.760Z,39.40
2023-03-17T13:17:34.343Z,39.26
2023-03-17T13:27:34.798Z,39.51
2023-03-17T13:37:35.238Z,39.31
2023-03-17T13:47:36.097Z,39.63
2023-03-17T13:57:35.703Z,39.89
2023-03-17T14:07:35.919Z,40.10
2023-03-17T14:17:35.769Z,40.15
2023-03-17T14:27:37.453Z,40.31
2023-03-17T14:37:37.836Z,40.45
2023-03-17T14:47:37.832Z,40.65
2023-03-17T14:57:38.189Z,40.98
2023-03-17T15:07:38.013Z,41.34
2023-03-17T15:17:37.899Z,42.00
2023-03-17T15:27:37.841Z,42.60
2023-03-17T15:37:37.855Z,43.08
2023-03-17T15:47:39.895Z,43.79
2023-03-17T15:57:39.960Z,44.19
2023-03-17T16:07:43.370Z,44.02
2023-03-17T16:17:43.939Z,44.15
2023-03-17T16:27:44.004Z,44.35
2023-03-17T16:37:44.038Z,45.08
2023-03-17T16:47:44.137Z,45.96
2023-03-17T16:57:44.093Z,46.70
2023-03-17T17:07:44.028Z,47.53
2023-03-17T17:17:44.205Z,48.22
2023-03-17T17:27:44.101Z,48.86
2023-03-17T17:37:44.252Z,49.94
2023-03-17T17:47:44.206Z,50.90
2023-03-17T17:57:44.105Z,51.43
2023-03-17T18:07:44.228Z,51.88
2023-03-17T18:17:44.251Z,52.38
2023-03-17T18:27:44.123Z,53.18
2023-03-17T18:37:44.163Z,53.37
2023-03-17T18:47:44.160Z,53.69
2023-03-17T18:57:44.952Z,54.10
2023-03-17T19:07:45.434Z,54.33
2023-03-17T19:17:45.186Z,54.52
2023-03-17T19:27:45.447Z,54.52
2023-03-17T19:37:45.731Z,54.58
2023-03-17T19:47:46.671Z,54.58
2023-03-17T19:57:47.338Z,54.61
2023-03-17T20:07:47.363Z,54.68
2023-03-17T20:17:47.902Z,54.83
2023-03-17T20:27:48.377Z,55.12
2023-03-17T20:37:50.214Z,55.94
2023-03-17T20:47:50.402Z,56.99
2023-03-17T20:57:51.014Z,58.50
2023-03-17T21:07:51.415Z,59.74
2023-03-17T21:17:51.997Z,60.92
2023-03-17T21:27:52.346Z,61.92
2023-03-17T21:37:53.021Z,62.63
2023-03-17T21:47:53.845Z,63.30
2023-03-17T21:57:55.802Z,64.00
2023-03-17T22:07:56.727Z,64.69
2023-03-17T22:17:57.315Z,65.34
2023-03-17T22:27:57.493Z,66.06
2023-03-17T22:37:57.479Z,66.53
2023-03-17T22:47:57.562Z,67.09
2023-03-17T22:57:57.559Z,67.62
2023-03-17T23:07:57.633Z,68.01
2023-03-17T23:17:57.651Z,68.48
2023-03-17T23:27:57.626Z,68.88
2023-03-17T23:37:57.590Z,69.29
2023-03-17T23:47:57.685Z,69.58
2023-03-17T23:57:57.595Z,69.96
